Wheatland, North Dakota
Current Conditions -  °F | °C
As of 9:53 AM on Thursday 23 Oct 2014 (Local Time) from KFAR Reporting Station
Clear Clear  
Wind Chill: 46°   Ceiling: Unl
Heat Index: 49°   Visibility: 10mi
Dew Point: 41°   Wind: 7mph
Humidity: 74%   Direction: 190°S
Pressure: 29.92"   Gusts: NA
Location:  46.91°N, 97.34°W
Report Text: KFAR 231453Z 19006KT 10SM CLR 09/05 A2992 RMK AO2 SLP137 T00940050 51005
Loading
Personal Weather Stations






























Interactive Weather Map
Tropical Storm Tracking
New forecast layout! Learn more

10-Day Weather Forecast

Advertisements
Track Severe Weather on mobile